Time;durP1;ratioP1;P1;durP2;ratioP2;P2;SDS_P1;SDS_P2;PMS_P1;PMS_P2;Temp;Humidity;BMP_temperature;BMP_pressure;BME280_temperature;BME280_humidity;BME280_pressure;Samples;Min_cycle;Max_cycle;Signal;HPM_P1;HPM_P2
2023/06/24 00:01:00;;;;;;;0.50;0.50;;;;;;;20.19;70.04;96323.56;4356355;32;20240;-61
2023/06/24 00:03:29;;;;;;;0.63;0.63;;;;;;;20.13;69.95;96319.53;4324741;32;20269;-61
2023/06/24 00:05:56;;;;;;;1.20;1.10;;;;;;;20.16;69.95;96325.03;4340630;32;20370;-61
2023/06/24 00:08:23;;;;;;;0.93;0.93;;;;;;;20.11;69.45;96327.94;4355983;32;20241;-61
2023/06/24 00:10:51;;;;;;;0.73;0.73;;;;;;;20.07;69.31;96326.22;4375175;32;20200;-61
2023/06/24 00:13:23;;;;;;;0.83;0.80;;;;;;;20.09;69.58;96324.00;4361606;32;20204;-61
2023/06/24 00:15:49;;;;;;;0.63;0.63;;;;;;;20.11;69.59;96319.06;4349709;32;20202;-61
2023/06/24 00:18:14;;;;;;;1.70;1.60;;;;;;;20.06;69.96;96324.66;4353486;32;20236;-61
2023/06/24 00:20:43;;;;;;;0.57;0.57;;;;;;;19.95;69.70;96318.09;4358769;32;20189;-62
2023/06/24 00:23:14;;;;;;;0.67;0.67;;;;;;;20.08;69.81;96311.63;4296576;32;20217;-61
2023/06/24 00:25:42;;;;;;;0.73;0.73;;;;;;;19.97;69.49;96315.81;4343572;32;20230;-61
2023/06/24 00:28:12;;;;;;;0.57;0.57;;;;;;;20.04;69.56;96313.41;4351519;32;20215;-61
2023/06/24 00:30:40;;;;;;;0.40;0.40;;;;;;;20.04;69.54;96321.50;4371333;32;20184;-61
2023/06/24 00:33:10;;;;;;;0.70;0.70;;;;;;;20.01;69.34;96316.75;4335337;32;20248;-61
2023/06/24 00:35:38;;;;;;;0.30;0.30;;;;;;;19.88;69.82;96319.37;4329826;32;20190;-61
2023/06/24 00:38:08;;;;;;;1.40;1.23;;;;;;;20.01;70.67;96317.53;4336944;32;20188;-61
2023/06/24 00:40:39;;;;;;;1.27;1.13;;;;;;;20.05;69.86;96315.78;4309067;32;20260;-61
2023/06/24 00:43:06;;;;;;;8.73;1.03;;;;;;;19.93;70.11;96313.03;4338663;32;20185;-61
2023/06/24 00:45:35;;;;;;;0.57;0.57;;;;;;;19.99;70.24;96313.59;4336042;32;20189;-61
2023/06/24 00:48:03;;;;;;;0.70;0.70;;;;;;;19.96;70.29;96309.66;4320437;32;20192;-61
2023/06/24 00:50:31;;;;;;;0.93;0.93;;;;;;;19.87;70.68;96304.34;4302963;32;20218;-62
2023/06/24 00:52:58;;;;;;;0.80;0.80;;;;;;;19.97;70.62;96296.97;4357010;32;20188;-62
2023/06/24 00:55:28;;;;;;;0.60;0.60;;;;;;;19.87;70.44;96290.09;4355207;32;20275;-61
2023/06/24 00:57:55;;;;;;;2.53;0.60;;;;;;;19.98;70.79;96301.25;4350216;32;20317;-61
2023/06/24 01:00:22;;;;;;;1.57;1.47;;;;;;;19.98;70.39;96293.16;4364789;32;20227;-61
2023/06/24 01:02:51;;;;;;;0.70;0.70;;;;;;;19.90;70.56;96294.81;4374354;32;20203;-61
2023/06/24 01:05:23;;;;;;;2.10;0.93;;;;;;;19.89;70.59;96285.16;4328913;32;20228;-62
2023/06/24 01:07:55;;;;;;;1.10;1.03;;;;;;;19.92;70.90;96286.41;4310914;32;20211;-61
2023/06/24 01:10:23;;;;;;;2.47;0.80;;;;;;;19.92;70.78;96291.81;4283703;32;20241;-62
2023/06/24 01:12:51;;;;;;;0.63;0.63;;;;;;;19.88;70.55;96289.75;4316692;32;20197;-62
2023/06/24 01:15:20;;;;;;;1.17;1.07;;;;;;;19.92;70.60;96284.50;4364857;32;20219;-61
2023/06/24 01:18:13;;;;;;;0.80;0.80;;;;;;;19.89;70.74;96283.25;4389216;32;20191;-61
2023/06/24 01:21:17;;;;;;;1.07;1.07;;;;;;;20.02;70.82;96280.63;4361397;32;20198;-61
2023/06/24 01:24:23;;;;;;;0.80;0.80;;;;;;;19.90;70.52;96279.44;4364019;32;20219;-62
2023/06/24 01:26:59;;;;;;;1.07;1.07;;;;;;;19.90;70.54;96282.16;4355165;32;20185;-61
2023/06/24 01:29:54;;;;;;;0.90;0.90;;;;;;;19.92;70.58;96275.66;4325964;32;20203;-61
2023/06/24 01:33:08;;;;;;;0.70;0.70;;;;;;;19.96;70.49;96281.94;4350550;32;20193;-61
2023/06/24 01:35:36;;;;;;;1.10;1.10;;;;;;;19.86;70.22;96277.75;4380643;32;20207;-61
2023/06/24 01:38:11;;;;;;;0.60;0.60;;;;;;;19.95;70.34;96275.00;4367751;32;20207;-62
2023/06/24 01:40:53;;;;;;;0.53;0.53;;;;;;;19.88;70.40;96272.81;4317435;32;20203;-57
2023/06/24 01:43:23;;;;;;;0.80;0.80;;;;;;;19.91;70.61;96274.84;4355568;32;20188;-58
2023/06/24 01:45:52;;;;;;;0.60;0.60;;;;;;;19.94;70.19;96268.03;4318755;32;20218;-58
2023/06/24 01:48:31;;;;;;;0.67;0.67;;;;;;;20.03;70.61;96268.72;4351883;32;20204;-58
2023/06/24 01:51:19;;;;;;;0.10;0.10;;;;;;;20.11;70.85;96263.28;4339461;32;20275;-58
2023/06/24 01:54:02;;;;;;;0.60;0.60;;;;;;;20.14;70.37;96265.31;4319605;32;20189;-58
2023/06/24 01:56:30;;;;;;;2.80;1.50;;;;;;;20.24;70.09;96262.19;4310375;32;20189;-58
2023/06/24 01:59:00;;;;;;;0.77;0.77;;;;;;;20.21;69.00;96253.97;4312916;32;20283;-58
2023/06/24 02:01:27;;;;;;;1.10;0.70;;;;;;;20.14;69.08;96267.22;4351080;32;20290;-58
2023/06/24 02:03:55;;;;;;;0.43;0.43;;;;;;;19.98;69.50;96269.72;4318773;32;20281;-57
2023/06/24 02:06:23;;;;;;;1.03;1.00;;;;;;;20.00;69.49;96262.09;4323593;32;20217;-58
2023/06/24 02:08:53;;;;;;;0.33;0.33;;;;;;;19.88;69.62;96265.53;4343505;32;20212;-55
2023/06/24 02:11:22;;;;;;;0.73;0.73;;;;;;;19.99;69.79;96267.81;4355919;32;20181;-58
2023/06/24 02:14:02;;;;;;;0.47;0.47;;;;;;;19.96;69.76;96268.47;4354992;32;20192;-58
2023/06/24 02:16:56;;;;;;;1.03;1.03;;;;;;;19.78;70.18;96265.91;4368647;32;20238;-58
2023/06/24 02:19:30;;;;;;;0.57;0.57;;;;;;;19.94;70.33;96273.41;4353579;32;20253;-58
2023/06/24 02:22:02;;;;;;;0.67;0.67;;;;;;;19.83;70.51;96273.00;4351615;32;20314;-57
2023/06/24 02:24:29;;;;;;;0.60;0.60;;;;;;;19.89;70.69;96264.41;4329953;32;20190;-58
2023/06/24 02:27:00;;;;;;;0.93;0.93;;;;;;;19.90;70.26;96271.38;4336213;32;20299;-59
2023/06/24 02:29:29;;;;;;;0.57;0.57;;;;;;;19.90;70.44;96273.28;4347230;32;20246;-58
2023/06/24 02:31:54;;;;;;;0.67;0.67;;;;;;;19.87;70.52;96279.31;4342312;32;20184;-58
2023/06/24 02:34:25;;;;;;;0.30;0.30;;;;;;;19.84;70.82;96280.75;4338642;32;20262;-58
2023/06/24 02:36:51;;;;;;;1.13;0.97;;;;;;;19.75;70.75;96280.03;4372326;32;20244;-58
2023/06/24 02:39:19;;;;;;;0.67;0.67;;;;;;;19.94;70.74;96284.19;4366626;32;20195;-57
2023/06/24 02:41:49;;;;;;;0.80;0.80;;;;;;;19.93;70.60;96274.53;4342567;32;20187;-58
2023/06/24 02:44:21;;;;;;;0.57;0.57;;;;;;;19.89;70.79;96277.09;4344068;32;20208;-58
2023/06/24 02:46:50;;;;;;;0.73;0.57;;;;;;;19.94;70.84;96282.28;4356623;32;20196;-58
2023/06/24 02:49:18;;;;;;;1.27;1.27;;;;;;;19.98;70.69;96275.09;4357206;32;20238;-59
2023/06/24 02:51:45;;;;;;;0.80;0.80;;;;;;;19.92;70.78;96281.03;4363416;32;20200;-57
2023/06/24 02:54:13;;;;;;;1.03;1.03;;;;;;;19.83;70.87;96284.56;4338901;32;20196;-58
2023/06/24 02:56:41;;;;;;;0.83;0.83;;;;;;;19.93;70.96;96279.91;4331948;32;20189;-59
2023/06/24 02:59:09;;;;;;;0.47;0.47;;;;;;;19.90;71.03;96290.22;4370485;32;20189;-58
2023/06/24 03:01:44;;;;;;;0.23;0.23;;;;;;;19.95;70.87;96301.94;4346136;32;20180;-58
2023/06/24 03:04:26;;;;;;;0.53;0.53;;;;;;;19.88;71.17;96300.53;4343073;32;20342;-58
2023/06/24 03:06:53;;;;;;;0.40;0.40;;;;;;;19.98;71.04;96290.47;4357737;32;20251;-58
2023/06/24 03:09:20;;;;;;;1.23;0.67;;;;;;;19.89;70.81;96299.41;4340437;32;20227;-58
2023/06/24 03:11:46;;;;;;;0.67;0.67;;;;;;;19.83;70.88;96298.03;4328876;32;20264;-58
2023/06/24 03:14:13;;;;;;;0.80;0.80;;;;;;;19.80;71.35;96301.38;4335218;32;20291;-58
2023/06/24 03:16:42;;;;;;;0.80;0.80;;;;;;;19.77;71.18;96303.94;4353182;32;20231;-57
2023/06/24 03:19:10;;;;;;;2.73;1.43;;;;;;;19.80;71.37;96301.38;4349138;32;20225;-58
2023/06/24 03:21:37;;;;;;;0.40;0.40;;;;;;;19.67;71.83;96307.03;4362358;32;20256;-58
2023/06/24 03:24:05;;;;;;;0.50;0.50;;;;;;;19.75;71.54;96308.84;4363442;32;20215;-58
2023/06/24 03:26:37;;;;;;;0.83;0.80;;;;;;;19.74;71.46;96316.19;4370813;32;20189;-58
2023/06/24 03:29:26;;;;;;;0.53;0.53;;;;;;;19.83;71.51;96316.88;4354037;32;20243;-58
2023/06/24 03:31:52;;;;;;;0.53;0.53;;;;;;;19.78;71.60;96316.28;4356492;32;20199;-57
2023/06/24 03:34:21;;;;;;;0.80;0.80;;;;;;;19.77;71.40;96317.41;4339149;32;20243;-58
2023/06/24 03:36:47;;;;;;;0.83;0.83;;;;;;;19.76;71.45;96316.59;4356353;32;20281;-57
2023/06/24 03:39:17;;;;;;;0.57;0.57;;;;;;;19.69;71.88;96305.59;4370921;32;20197;-58
2023/06/24 03:41:43;;;;;;;0.90;0.90;;;;;;;19.67;72.19;96321.28;4355835;32;20217;-58
2023/06/24 03:44:09;;;;;;;1.10;1.03;;;;;;;19.66;71.66;96311.63;4348644;32;20190;-58
2023/06/24 03:46:36;;;;;;;1.03;0.90;;;;;;;19.73;71.76;96319.97;4329991;32;20196;-59
2023/06/24 03:49:03;;;;;;;1.07;1.07;;;;;;;19.68;71.36;96316.69;4325871;32;20219;-58
2023/06/24 03:51:30;;;;;;;0.50;0.50;;;;;;;19.70;71.70;96328.72;4359015;32;20205;-58
2023/06/24 03:54:00;;;;;;;0.83;0.83;;;;;;;19.58;71.38;96322.44;4353094;32;20189;-58
2023/06/24 03:56:26;;;;;;;1.00;1.00;;;;;;;19.65;71.78;96320.03;4345481;32;20188;-58
2023/06/24 03:58:54;;;;;;;0.50;0.50;;;;;;;19.73;71.74;96324.56;4337242;32;20200;-58
2023/06/24 04:01:22;;;;;;;0.83;0.83;;;;;;;19.69;71.55;96327.13;4358127;32;20185;-58
2023/06/24 04:03:48;;;;;;;0.50;0.50;;;;;;;19.70;71.52;96327.91;4344908;32;20201;-58
2023/06/24 04:06:17;;;;;;;0.93;0.90;;;;;;;19.66;71.47;96327.00;4347222;32;20207;-57
2023/06/24 04:08:48;;;;;;;0.60;0.60;;;;;;;19.69;71.55;96326.34;4363696;32;20193;-57
2023/06/24 04:11:15;;;;;;;0.57;0.53;;;;;;;19.74;71.30;96323.47;4311625;32;20208;-57
2023/06/24 04:13:47;;;;;;;0.70;0.70;;;;;;;19.69;70.92;96327.13;4312069;32;20189;-58
2023/06/24 04:16:14;;;;;;;0.57;0.57;;;;;;;19.79;70.72;96325.94;4348124;32;20197;-58
2023/06/24 04:18:40;;;;;;;0.57;0.57;;;;;;;19.92;70.84;96321.44;4381338;32;20192;-58
2023/06/24 04:21:06;;;;;;;0.73;0.73;;;;;;;19.93;70.45;96314.94;4357516;32;20193;-58
2023/06/24 04:23:40;;;;;;;0.90;0.90;;;;;;;19.86;70.17;96323.53;4339446;32;20189;-57
2023/06/24 04:26:07;;;;;;;0.50;0.50;;;;;;;19.75;70.68;96325.81;4339535;32;20219;-61
2023/06/24 04:28:33;;;;;;;0.93;0.93;;;;;;;19.83;70.79;96327.66;4327241;32;20208;-58
2023/06/24 04:31:00;;;;;;;1.13;1.13;;;;;;;19.80;70.42;96331.00;4333557;32;20180;-58
2023/06/24 04:33:26;;;;;;;0.40;0.40;;;;;;;19.81;70.55;96326.41;4289113;32;21685;-58
2023/06/24 04:35:58;;;;;;;0.90;0.90;;;;;;;19.85;70.48;96330.03;4365094;32;20244;-58
2023/06/24 04:38:28;;;;;;;0.70;0.70;;;;;;;19.89;70.71;96329.06;4339904;32;20339;-57
2023/06/24 04:40:59;;;;;;;0.90;0.90;;;;;;;19.88;70.45;96332.06;4362693;32;20279;-58
2023/06/24 04:43:31;;;;;;;1.33;1.23;;;;;;;19.93;70.98;96336.47;4368945;32;20207;-57
2023/06/24 04:45:57;;;;;;;1.10;1.10;;;;;;;19.92;70.88;96340.28;4355873;32;20272;-57
2023/06/24 04:48:26;;;;;;;0.60;0.60;;;;;;;19.96;70.68;96333.09;4345538;32;20312;-57
2023/06/24 04:50:55;;;;;;;4.60;1.20;;;;;;;19.96;70.87;96341.97;4322080;32;20208;-58
2023/06/24 04:53:22;;;;;;;0.70;0.70;;;;;;;19.99;70.79;96346.72;4339431;32;20208;-58
2023/06/24 04:55:49;;;;;;;0.63;0.63;;;;;;;20.06;70.85;96349.69;4335371;32;20244;-58
2023/06/24 04:58:16;;;;;;;0.70;0.70;;;;;;;20.11;70.75;96351.41;4349396;32;20196;-58
2023/06/24 05:00:43;;;;;;;0.87;0.87;;;;;;;20.15;70.55;96349.63;4361004;32;20184;-58
2023/06/24 05:03:12;;;;;;;0.63;0.63;;;;;;;20.17;70.34;96345.47;4363033;32;20188;-58
2023/06/24 05:05:39;;;;;;;1.33;1.23;;;;;;;20.09;70.49;96350.94;4372713;32;20188;-58
2023/06/24 05:08:06;;;;;;;0.53;0.53;;;;;;;20.08;70.56;96346.66;4391660;32;20227;-57
2023/06/24 05:10:42;;;;;;;0.20;0.20;;;;;;;20.06;70.49;96346.19;4371257;32;20180;-58
2023/06/24 05:13:07;;;;;;;0.53;0.53;;;;;;;20.10;70.74;96353.31;4350293;32;20181;-58
2023/06/24 05:15:36;;;;;;;0.77;0.77;;;;;;;20.03;70.64;96350.34;4351790;32;20204;-59
2023/06/24 05:18:02;;;;;;;0.37;0.37;;;;;;;19.99;71.10;96345.94;4356200;32;20188;-58
2023/06/24 05:20:28;;;;;;;1.77;1.00;;;;;;;20.01;71.09;96349.87;4319758;32;20220;-58
2023/06/24 05:22:55;;;;;;;0.47;0.47;;;;;;;19.96;71.25;96346.56;4369664;32;20291;-62
2023/06/24 05:25:22;;;;;;;0.70;0.70;;;;;;;19.86;71.39;96343.16;4344111;32;20196;-58
2023/06/24 05:27:52;;;;;;;0.70;0.70;;;;;;;19.89;71.26;96345.22;4358789;32;20250;-57
2023/06/24 05:30:19;;;;;;;0.67;0.67;;;;;;;19.76;71.19;96348.94;4351365;32;20203;-58
2023/06/24 05:32:45;;;;;;;1.13;1.13;;;;;;;19.89;71.55;96356.00;4357497;32;20181;-58
2023/06/24 05:35:15;;;;;;;0.80;0.80;;;;;;;19.94;71.02;96359.63;4351277;32;20184;-58
2023/06/24 05:37:42;;;;;;;1.00;1.00;;;;;;;19.94;70.62;96359.63;4355649;32;20185;-58
2023/06/24 05:40:12;;;;;;;3.10;1.20;;;;;;;19.93;71.13;96358.03;4345415;32;20200;-57
2023/06/24 05:42:42;;;;;;;0.87;0.83;;;;;;;19.83;70.77;96364.56;4346742;32;20207;-58
2023/06/24 05:45:09;;;;;;;0.90;0.90;;;;;;;19.84;70.54;96350.00;4355119;32;20220;-57
2023/06/24 05:47:34;;;;;;;1.00;1.00;;;;;;;19.97;70.40;96354.34;4342439;32;20280;-58
2023/06/24 05:50:01;;;;;;;0.80;0.80;;;;;;;20.11;70.66;96354.88;4347216;32;20207;-58
2023/06/24 05:52:28;;;;;;;0.60;0.60;;;;;;;20.04;70.04;96364.59;4357358;32;20247;-58
2023/06/24 05:54:54;;;;;;;0.80;0.80;;;;;;;20.20;70.05;96360.19;4368813;32;20352;-59
2023/06/24 05:57:20;;;;;;;1.60;1.03;;;;;;;20.18;68.95;96365.13;4349243;32;20197;-58
2023/06/24 05:59:47;;;;;;;1.03;0.83;;;;;;;20.19;69.62;96370.19;4356087;32;20203;-58
2023/06/24 06:02:15;;;;;;;1.00;1.00;;;;;;;20.05;69.21;96371.56;4361570;32;20194;-58
2023/06/24 06:04:44;;;;;;;0.73;0.73;;;;;;;20.21;69.77;96376.03;4348477;32;20180;-58
2023/06/24 06:07:11;;;;;;;0.53;0.53;;;;;;;20.32;69.43;96376.44;4364028;32;20196;-57
2023/06/24 06:09:37;;;;;;;2.07;1.50;;;;;;;20.24;68.31;96375.38;4339009;32;20305;-58
2023/06/24 06:12:08;;;;;;;1.17;1.17;;;;;;;20.28;68.21;96372.81;4343828;32;20254;-57
2023/06/24 06:14:34;;;;;;;0.53;0.53;;;;;;;20.23;67.82;96379.19;4347740;32;20200;-57
2023/06/24 06:17:01;;;;;;;0.53;0.53;;;;;;;20.29;67.70;96370.91;4364428;32;20184;-58
2023/06/24 06:19:28;;;;;;;1.03;1.03;;;;;;;20.25;66.13;96376.97;4331427;32;20207;-57
2023/06/24 06:21:55;;;;;;;0.60;0.60;;;;;;;20.27;65.89;96365.84;4301341;32;20327;-58
2023/06/24 06:24:21;;;;;;;0.50;0.50;;;;;;;20.37;65.82;96367.41;4355824;32;20219;-57
2023/06/24 06:26:48;;;;;;;1.00;1.00;;;;;;;20.40;67.05;96377.50;4358827;32;20231;-58
2023/06/24 06:29:15;;;;;;;0.90;0.90;;;;;;;20.42;65.85;96373.34;4386008;32;20241;-57
2023/06/24 06:31:43;;;;;;;0.70;0.70;;;;;;;20.29;64.80;96377.09;4372959;32;20201;-58
2023/06/24 06:34:10;;;;;;;0.63;0.63;;;;;;;20.36;65.95;96368.50;4338390;32;20189;-58
2023/06/24 06:36:36;;;;;;;0.90;0.87;;;;;;;20.49;67.05;96368.22;4345787;32;20198;-59
2023/06/24 06:39:02;;;;;;;2.27;1.43;;;;;;;20.42;64.89;96369.88;4368045;32;20188;-58
2023/06/24 06:41:30;;;;;;;0.67;0.67;;;;;;;20.36;63.01;96366.59;4365140;32;20180;-58
2023/06/24 06:43:58;;;;;;;0.97;0.97;;;;;;;20.44;64.92;96370.34;4337076;32;20200;-58
2023/06/24 06:46:25;;;;;;;0.60;0.60;;;;;;;20.47;65.60;96375.84;4383725;32;20268;-59
2023/06/24 06:48:52;;;;;;;0.87;0.87;;;;;;;20.64;66.37;96368.72;4304847;32;20204;-57
2023/06/24 06:51:18;;;;;;;1.17;1.07;;;;;;;20.74;64.94;96377.22;4333795;32;20190;-58
2023/06/24 06:53:47;;;;;;;1.23;0.93;;;;;;;20.77;67.16;96375.75;4364733;32;20209;-58
2023/06/24 06:56:18;;;;;;;0.57;0.57;;;;;;;20.92;67.31;96372.44;4373543;32;20189;-58
2023/06/24 06:58:44;;;;;;;0.90;0.90;;;;;;;20.91;66.55;96366.25;4362615;32;20192;-58
2023/06/24 07:01:13;;;;;;;0.80;0.80;;;;;;;20.76;67.49;96376.88;4333800;32;20197;-57
2023/06/24 07:03:39;;;;;;;0.53;0.53;;;;;;;20.97;68.21;96377.62;4323570;32;20211;-58
2023/06/24 07:06:06;;;;;;;2.53;0.77;;;;;;;20.92;64.63;96372.44;4358332;32;20211;-58
2023/06/24 07:08:32;;;;;;;0.60;0.60;;;;;;;20.93;65.87;96376.69;4372596;32;20192;-58
2023/06/24 07:10:58;;;;;;;0.60;0.60;;;;;;;20.88;65.88;96376.91;4372406;32;20285;-58
2023/06/24 07:13:26;;;;;;;0.77;0.77;;;;;;;21.05;67.61;96365.94;4363972;32;20279;-58
2023/06/24 07:15:56;;;;;;;0.97;0.97;;;;;;;20.92;62.74;96377.81;4335113;32;20274;-58
2023/06/24 07:18:23;;;;;;;5.90;3.73;;;;;;;20.98;63.24;96370.31;4249242;32;20216;-58
2023/06/24 07:20:50;;;;;;;1.80;1.73;;;;;;;21.30;66.23;96366.78;4269723;32;20198;-58
2023/06/24 07:23:17;;;;;;;1.60;1.40;;;;;;;21.29;65.61;96369.81;4282656;32;20240;-58
2023/06/24 07:25:43;;;;;;;3.00;2.33;;;;;;;21.05;57.54;96365.94;4311187;32;20198;-58
2023/06/24 07:28:10;;;;;;;0.93;0.93;;;;;;;21.44;65.28;96369.16;4317988;32;20363;-58
2023/06/24 07:30:41;;;;;;;3.60;2.80;;;;;;;20.99;58.45;96374.59;4338630;32;20326;-57
2023/06/24 07:33:14;;;;;;;10.53;2.30;;;;;;;21.09;64.86;96374.94;4274126;32;20290;-58
2023/06/24 07:35:43;;;;;;;16.07;2.50;;;;;;;21.21;63.90;96364.19;4311056;32;20246;-58
2023/06/24 07:38:08;;;;;;;3.43;1.90;;;;;;;21.41;66.99;96362.50;4341118;32;20209;-58
2023/06/24 07:40:33;;;;;;;2.57;1.50;;;;;;;21.54;65.05;96368.72;4300089;32;20241;-60
2023/06/24 07:43:04;;;;;;;0.93;0.90;;;;;;;21.40;60.86;96368.28;4280929;33;20257;-58
2023/06/24 07:45:31;;;;;;;0.30;0.30;;;;;;;21.19;57.71;96371.81;4321609;32;20208;-57
2023/06/24 07:47:57;;;;;;;1.50;1.40;;;;;;;21.11;56.40;96367.28;4323026;32;20240;-58
2023/06/24 07:50:24;;;;;;;1.40;1.30;;;;;;;21.34;63.61;96365.00;4355160;32;20185;-58
2023/06/24 07:52:54;;;;;;;1.93;1.83;;;;;;;21.34;62.23;96369.59;4344563;32;20201;-58
2023/06/24 07:55:21;;;;;;;16.23;2.00;;;;;;;;;;4358347;32;20207;-58
2023/06/24 07:57:48;;;;;;;0.90;0.90;;;;;;;21.52;61.85;96363.66;4350267;32;20248;-57
2023/06/24 08:00:16;;;;;;;5.87;2.63;;;;;;;21.56;62.28;96369.16;4368475;32;20189;-58
2023/06/24 08:02:44;;;;;;;1.97;1.80;;;;;;;21.40;62.68;96373.66;4327559;32;20231;-57
2023/06/24 08:05:11;;;;;;;1.17;0.60;;;;;;;21.51;63.24;96375.56;4322318;32;20226;-58
2023/06/24 08:07:40;;;;;;;0.30;0.30;;;;;;;21.37;58.17;96375.13;4363677;32;20242;-57
2023/06/24 08:10:06;;;;;;;4.03;1.27;;;;;;;21.12;54.81;96379.66;4358700;32;20257;-58
2023/06/24 08:12:32;;;;;;;0.80;0.80;;;;;;;20.97;58.53;96380.31;4364182;32;20185;-58
2023/06/24 08:14:59;;;;;;;0.73;0.73;;;;;;;20.99;61.50;96378.03;4367300;32;20246;-58
2023/06/24 08:17:25;;;;;;;1.60;1.50;;;;;;;20.49;56.00;96381.72;4371529;32;20222;-57
2023/06/24 08:19:54;;;;;;;0.67;0.67;;;;;;;20.45;57.02;96374.59;4349846;32;20189;-58
2023/06/24 08:22:21;;;;;;;0.80;0.80;;;;;;;20.38;57.27;96369.75;4319739;32;20272;-57
2023/06/24 08:24:49;;;;;;;0.77;0.77;;;;;;;20.50;61.73;96375.22;4360733;32;20203;-57
2023/06/24 08:27:16;;;;;;;0.63;0.63;;;;;;;20.87;62.47;96369.94;4358995;32;20192;-57
2023/06/24 08:29:43;;;;;;;0.70;0.70;;;;;;;21.10;63.39;96363.03;4323308;32;20189;-58
2023/06/24 08:32:16;;;;;;;1.13;1.13;;;;;;;21.32;62.24;96361.84;4366182;32;20180;-58
2023/06/24 08:34:42;;;;;;;1.33;0.70;;;;;;;20.88;55.15;96360.72;4350913;32;20208;-57
2023/06/24 08:37:09;;;;;;;1.13;1.03;;;;;;;20.24;55.71;96363.81;4367515;32;20219;-58
2023/06/24 08:39:56;;;;;;;1.40;1.40;;;;;;;20.33;59.63;96364.53;4330471;32;20235;-58
2023/06/24 08:42:22;;;;;;;0.40;0.40;;;;;;;20.59;60.83;96362.41;4340795;32;20208;-58
2023/06/24 08:44:47;;;;;;;0.67;0.67;;;;;;;20.42;61.94;96364.47;4325619;32;20254;-57
2023/06/24 08:47:18;;;;;;;1.23;1.23;;;;;;;20.72;61.77;96359.78;4347377;32;20192;-57
2023/06/24 08:49:49;;;;;;;0.87;0.87;;;;;;;20.73;61.36;96361.34;4316774;32;20219;-57
2023/06/24 08:52:17;;;;;;;0.57;0.57;;;;;;;20.98;56.60;96368.41;4307525;32;20304;-58
2023/06/24 08:54:48;;;;;;;1.07;1.07;;;;;;;20.82;58.49;96362.03;4328257;32;20230;-57
2023/06/24 08:57:16;;;;;;;1.03;1.03;;;;;;;20.74;55.76;96360.25;4347019;32;20197;-58
2023/06/24 08:59:44;;;;;;;1.33;1.23;;;;;;;20.76;55.74;96363.41;4335379;32;20189;-58
2023/06/24 09:02:11;;;;;;;0.50;0.50;;;;;;;20.55;55.55;96358.03;4368629;32;20192;-58
2023/06/24 09:04:46;;;;;;;0.53;0.53;;;;;;;20.54;56.63;96359.16;4374238;32;20250;-57
2023/06/24 09:07:27;;;;;;;0.53;0.53;;;;;;;20.35;56.16;96359.63;4330404;32;20183;-58
2023/06/24 09:09:58;;;;;;;0.70;0.70;;;;;;;20.24;56.36;96366.50;4326629;32;20268;-58
2023/06/24 09:12:26;;;;;;;1.03;1.03;;;;;;;20.39;58.63;96365.94;4340646;32;20298;-58
2023/06/24 09:14:54;;;;;;;0.97;0.97;;;;;;;20.26;57.18;96364.28;4344554;32;20205;-59
2023/06/24 09:17:22;;;;;;;1.03;1.03;;;;;;;20.29;58.07;96370.91;4365424;32;20207;-58
2023/06/24 09:20:10;;;;;;;1.23;1.23;;;;;;;20.56;60.96;96367.72;4354568;32;20263;-58
2023/06/24 09:22:40;;;;;;;1.10;1.00;;;;;;;20.75;62.97;96367.22;4351454;32;20200;-58
2023/06/24 09:25:09;;;;;;;1.10;1.07;;;;;;;20.74;58.22;96361.03;4357027;32;20264;-58
2023/06/24 09:27:37;;;;;;;0.70;0.70;;;;;;;20.73;60.96;96358.66;4359431;32;20192;-58
2023/06/24 09:30:19;;;;;;;0.40;0.37;;;;;;;20.93;62.54;96360.50;4307958;32;20203;-58
2023/06/24 09:32:50;;;;;;;0.60;0.60;;;;;;;21.22;60.88;96354.16;4338895;32;20198;-58
2023/06/24 09:35:34;;;;;;;1.03;1.03;;;;;;;21.09;55.89;96349.84;4351302;32;20200;-58
2023/06/24 09:38:02;;;;;;;0.87;0.87;;;;;;;21.04;59.41;96348.16;4361828;32;20207;-58
2023/06/24 09:40:34;;;;;;;1.23;1.23;;;;;;;21.28;58.25;96355.53;4371413;32;20201;-59
2023/06/24 09:43:03;;;;;;;0.83;0.83;;;;;;;21.00;56.71;96344.53;4360289;32;20219;-58
2023/06/24 09:45:33;;;;;;;0.90;0.90;;;;;;;21.19;59.90;96344.81;4333772;32;20193;-58
2023/06/24 09:48:02;;;;;;;0.90;0.90;;;;;;;21.22;55.58;96354.16;4343669;32;20263;-58
2023/06/24 09:50:33;;;;;;;1.13;1.13;;;;;;;21.21;57.39;96347.97;4354442;32;20192;-57
2023/06/24 09:53:06;;;;;;;0.80;0.80;;;;;;;21.08;54.60;96342.87;4324930;32;20247;-58
2023/06/24 09:55:32;;;;;;;1.30;1.20;;;;;;;20.95;55.33;96339.38;4367511;32;20196;-58
2023/06/24 09:57:59;;;;;;;1.03;1.03;;;;;;;21.22;60.34;96332.56;4390538;32;20226;-60
2023/06/24 10:00:26;;;;;;;0.73;0.73;;;;;;;21.10;53.35;96340.63;4334542;32;20262;-59
2023/06/24 10:02:54;;;;;;;1.33;1.33;;;;;;;21.34;53.73;96331.81;4365252;32;20264;-58
2023/06/24 10:05:24;;;;;;;1.37;1.27;;;;;;;21.38;57.01;96330.81;4365237;32;20239;-58
2023/06/24 10:07:50;;;;;;;0.73;0.73;;;;;;;21.12;52.66;96327.59;4365041;32;20230;-58
2023/06/24 10:10:24;;;;;;;1.63;1.60;;;;;;;21.21;53.84;96331.00;4349734;32;20194;-57
2023/06/24 10:12:54;;;;;;;1.17;1.17;;;;;;;21.07;51.95;96331.28;4331615;32;20223;-58
2023/06/24 10:15:21;;;;;;;1.33;1.23;;;;;;;21.20;54.42;96329.41;4338375;32;20223;-58
2023/06/24 10:17:50;;;;;;;0.63;0.63;;;;;;;21.36;54.44;96318.75;4322829;32;20193;-58
2023/06/24 10:20:26;;;;;;;0.67;0.67;;;;;;;21.55;57.72;96319.75;4354950;32;20181;-58
2023/06/24 10:22:52;;;;;;;1.10;1.10;;;;;;;21.55;57.92;96324.38;4338470;32;20197;-58
2023/06/24 10:25:18;;;;;;;2.77;1.43;;;;;;;;;;4378686;32;20299;-58
2023/06/24 10:27:47;;;;;;;0.60;0.60;;;;;;;21.33;57.37;96306.72;4372055;32;20203;-58
2023/06/24 10:30:27;;;;;;;1.50;1.50;;;;;;;21.42;57.46;96309.28;4314856;32;20219;-59
2023/06/24 10:32:55;;;;;;;1.30;1.20;;;;;;;21.46;58.27;96304.78;4282572;32;20277;-59
2023/06/24 10:35:34;;;;;;;1.23;1.17;;;;;;;21.18;55.13;96316.25;4323540;32;20233;-58
2023/06/24 10:38:01;;;;;;;0.70;0.70;;;;;;;21.00;55.11;96305.97;4312618;32;20247;-58
2023/06/24 10:40:43;;;;;;;1.93;1.83;;;;;;;21.09;58.47;96312.06;4361159;32;20255;-58
2023/06/24 10:43:27;;;;;;;1.00;1.00;;;;;;;21.03;54.84;96303.41;4346422;32;20176;-58
2023/06/24 10:45:55;;;;;;;1.33;1.20;;;;;;;21.04;57.06;96298.78;4338356;32;20347;-58
2023/06/24 10:48:22;;;;;;;1.30;1.30;;;;;;;21.04;55.94;96298.78;4355915;32;20207;-58
2023/06/24 10:50:49;;;;;;;0.60;0.60;;;;;;;21.04;54.82;96288.78;4318153;32;20300;-58
2023/06/24 10:53:18;;;;;;;0.70;0.70;;;;;;;21.22;56.06;96287.47;4338909;32;20181;-58
2023/06/24 10:55:46;;;;;;;0.80;0.80;;;;;;;21.30;53.82;96287.72;4333751;32;20204;-58
2023/06/24 10:58:15;;;;;;;1.37;1.27;;;;;;;21.28;53.57;96282.66;4348765;32;20203;-58
2023/06/24 11:00:43;;;;;;;0.83;0.83;;;;;;;21.30;52.66;96280.41;4356136;32;20211;-58
2023/06/24 11:03:16;;;;;;;1.47;1.10;;;;;;;21.42;52.63;96280.38;4367064;32;20257;-58
2023/06/24 11:05:44;;;;;;;0.80;0.80;;;;;;;21.59;51.34;96276.66;4382976;32;20204;-58
2023/06/24 11:08:12;;;;;;;1.27;1.17;;;;;;;21.65;50.25;96275.28;4346580;32;20197;-63
2023/06/24 11:10:48;;;;;;;0.63;0.63;;;;;;;21.72;53.32;96272.81;4348677;32;20188;-58
2023/06/24 11:13:16;;;;;;;0.87;0.87;;;;;;;21.76;53.05;96271.00;4345571;32;20215;-59
2023/06/24 11:15:43;;;;;;;0.90;0.90;;;;;;;21.80;54.73;96261.09;4351071;32;20196;-58
2023/06/24 11:18:13;;;;;;;0.93;0.93;;;;;;;21.61;49.11;96266.31;4313068;32;20208;-58
2023/06/24 11:20:40;;;;;;;1.30;1.20;;;;;;;21.58;49.71;96261.59;4347122;32;20236;-57
2023/06/24 11:23:08;;;;;;;0.53;0.53;;;;;;;21.68;50.75;96253.00;4340421;32;20197;-57
2023/06/24 11:25:41;;;;;;;1.33;1.33;;;;;;;21.86;50.87;96254.28;4356918;32;20234;-58
2023/06/24 11:28:27;;;;;;;1.67;1.60;;;;;;;22.02;51.46;96251.72;4376955;32;20192;-59
2023/06/24 11:30:55;;;;;;;0.60;0.60;;;;;;;22.12;51.03;96250.41;4351533;32;20188;-58
2023/06/24 11:33:31;;;;;;;1.20;1.20;;;;;;;22.20;49.10;96246.78;4335795;32;20185;-58
2023/06/24 11:36:01;;;;;;;0.60;0.60;;;;;;;22.17;50.52;96242.06;4369370;32;20196;-58
2023/06/24 11:38:31;;;;;;;0.73;0.73;;;;;;;22.08;51.48;96233.31;4332650;32;20280;-59
2023/06/24 11:40:58;;;;;;;1.13;1.13;;;;;;;22.05;47.66;96234.00;4362961;32;20284;-58
2023/06/24 11:43:34;;;;;;;0.93;0.93;;;;;;;21.97;48.75;96237.63;4355365;32;20252;-58
2023/06/24 11:46:02;;;;;;;1.47;1.37;;;;;;;21.88;49.34;96230.44;4346170;32;20184;-58